createdAt,value
2023-02-05T00:01:35.184Z,77.31
2023-02-05T00:11:35.064Z,77.41
2023-02-05T00:21:35.024Z,77.45
2023-02-05T00:31:35.629Z,77.64
2023-02-05T00:41:36.554Z,77.79
2023-02-05T00:51:37.034Z,77.95
2023-02-05T01:01:37.163Z,78.04
2023-02-05T01:11:37.340Z,78.14
2023-02-05T01:21:37.276Z,78.32
2023-02-05T01:31:37.279Z,78.32
2023-02-05T01:41:37.211Z,78.27
2023-02-05T01:51:37.164Z,78.35
2023-02-05T02:01:37.145Z,78.38
2023-02-05T02:11:37.543Z,78.46
2023-02-05T02:21:38.436Z,78.60
2023-02-05T02:31:38.180Z,78.73
2023-02-05T02:41:38.332Z,78.82
2023-02-05T02:51:38.480Z,78.98
2023-02-05T03:01:39.037Z,79.04
2023-02-05T03:11:40.954Z,79.10
2023-02-05T03:21:41.312Z,79.12
2023-02-05T03:31:53.039Z,79.14
2023-02-05T03:41:58.322Z,79.12
2023-02-05T03:51:58.927Z,79.21
2023-02-05T04:02:01.233Z,79.24
2023-02-05T04:12:02.065Z,79.37
2023-02-05T04:22:04.189Z,79.42
2023-02-05T04:32:04.406Z,79.56
2023-02-05T04:42:04.378Z,79.66
2023-02-05T04:52:04.389Z,79.78
2023-02-05T05:02:04.497Z,79.94
2023-02-05T05:12:04.384Z,80.08
2023-02-05T05:22:04.366Z,80.24
2023-02-05T05:32:04.548Z,80.35
2023-02-05T05:42:22.808Z,80.46
2023-02-05T05:52:23.558Z,80.68
2023-02-05T06:02:23.447Z,80.74
2023-02-05T06:12:23.526Z,80.84
2023-02-05T06:22:23.490Z,80.89
2023-02-05T06:32:26.460Z,81.02
2023-02-05T06:42:25.635Z,81.15
2023-02-05T06:52:25.520Z,81.22
2023-02-05T07:02:25.561Z,81.30
2023-02-05T07:12:25.497Z,81.38
2023-02-05T07:22:25.622Z,81.56
2023-02-05T07:32:25.501Z,81.69
2023-02-05T07:42:27.399Z,81.71
2023-02-05T07:52:27.674Z,81.85
2023-02-05T08:02:27.602Z,81.85
2023-02-05T08:12:27.592Z,81.86
2023-02-05T08:22:27.621Z,81.93
2023-02-05T08:32:27.604Z,82.02
2023-02-05T08:42:27.721Z,82.12
2023-02-05T08:52:27.725Z,82.00
2023-02-05T09:02:29.959Z,82.34
2023-02-05T09:12:29.732Z,82.00
2023-02-05T09:22:29.706Z,81.68
2023-02-05T09:32:29.725Z,81.42
2023-02-05T09:42:29.165Z,81.50
2023-02-05T09:52:29.814Z,81.30
2023-02-05T10:02:31.203Z,80.87
2023-02-05T10:12:31.682Z,80.51
2023-02-05T10:22:31.899Z,80.90
2023-02-05T10:32:31.765Z,81.06
2023-02-05T10:42:32.560Z,81.14
2023-02-05T10:52:32.889Z,81.32
2023-02-05T11:02:32.917Z,81.32
2023-02-05T11:12:33.333Z,81.49
2023-02-05T11:22:34.799Z,81.07
2023-02-05T11:32:35.543Z,81.37
2023-02-05T11:42:35.888Z,81.14
2023-02-05T11:52:36.982Z,80.83
2023-02-05T12:02:37.040Z,81.03
2023-02-05T12:12:36.936Z,81.50
2023-02-05T12:22:37.016Z,81.95
2023-02-05T12:32:36.927Z,82.15
2023-02-05T12:42:36.973Z,82.39
2023-02-05T12:52:37.041Z,82.57
2023-02-05T13:02:36.946Z,82.74
2023-02-05T13:12:36.956Z,82.63
2023-02-05T13:22:55.380Z,83.22
2023-02-05T13:32:56.306Z,83.42
2023-02-05T13:42:56.003Z,83.40
2023-02-05T13:52:56.070Z,83.31
2023-02-05T14:02:55.988Z,83.43
2023-02-05T14:12:56.032Z,83.57
2023-02-05T14:22:57.435Z,83.46
2023-02-05T14:32:58.078Z,83.23
2023-02-05T14:43:09.653Z,82.94
2023-02-05T14:53:00.249Z,82.56
2023-02-05T15:03:00.166Z,82.30
2023-02-05T15:13:00.103Z,81.78
2023-02-05T15:23:00.179Z,81.57
2023-02-05T15:33:00.150Z,81.43
2023-02-05T15:43:00.223Z,81.33
2023-02-05T15:53:00.241Z,81.25
2023-02-05T16:03:00.241Z,81.26
2023-02-05T16:13:00.272Z,81.44
2023-02-05T16:23:00.389Z,81.33
2023-02-05T16:33:00.327Z,81.25
2023-02-05T16:43:00.254Z,81.31
2023-02-05T16:53:00.396Z,81.42
2023-02-05T17:03:00.366Z,81.67
2023-02-05T17:13:02.713Z,81.80
2023-02-05T17:23:03.268Z,82.05
2023-02-05T17:33:04.848Z,82.23
2023-02-05T17:43:05.263Z,82.44
2023-02-05T17:53:05.423Z,82.37
2023-02-05T18:03:05.350Z,82.29
2023-02-05T18:13:05.448Z,82.22
2023-02-05T18:23:05.494Z,81.94
2023-02-05T18:33:06.378Z,81.80
2023-02-05T18:43:06.411Z,81.65
2023-02-05T18:53:06.629Z,81.43
2023-02-05T19:03:06.490Z,81.20
2023-02-05T19:13:06.475Z,80.94
2023-02-05T19:23:06.360Z,80.69
2023-02-05T19:33:06.414Z,80.53
2023-02-05T19:43:06.561Z,80.32
2023-02-05T19:53:06.407Z,80.23
2023-02-05T20:03:06.445Z,80.04
2023-02-05T20:13:07.090Z,79.82
2023-02-05T20:23:07.837Z,79.48
2023-02-05T20:33:08.498Z,79.36
2023-02-05T20:43:08.745Z,79.39
2023-02-05T20:53:08.463Z,79.47
2023-02-05T21:03:08.546Z,79.65
2023-02-05T21:13:08.490Z,79.87
2023-02-05T21:23:08.516Z,80.04
2023-02-05T21:33:08.610Z,80.23
2023-02-05T21:43:08.606Z,80.46
2023-02-05T21:53:08.669Z,80.65
2023-02-05T22:03:08.883Z,80.86
2023-02-05T22:13:08.556Z,80.97
2023-02-05T22:23:08.578Z,81.06
2023-02-05T22:33:08.832Z,81.22
2023-02-05T22:43:08.599Z,81.37
2023-02-05T22:53:08.603Z,81.58
2023-02-05T23:03:08.647Z,81.74
2023-02-05T23:13:08.616Z,81.93
2023-02-05T23:23:08.662Z,82.18
2023-02-05T23:33:08.631Z,82.40
2023-02-05T23:43:08.679Z,82.42
2023-02-05T23:53:08.684Z,82.53
